createdAt,value
2017-08-24T00:01:06.798Z,73.60
2017-08-24T00:03:34.482Z,73.60
2017-08-24T00:06:02.119Z,74.20
2017-08-24T00:08:29.770Z,74.40
2017-08-24T00:10:57.449Z,74.20
2017-08-24T00:13:25.151Z,74.40
2017-08-24T00:15:52.794Z,74.50
2017-08-24T00:18:20.542Z,74.50
2017-08-24T00:20:48.188Z,74.20
2017-08-24T00:23:15.934Z,74.10
2017-08-24T00:25:43.647Z,73.90
2017-08-24T00:28:11.278Z,74.10
2017-08-24T00:30:38.959Z,74.10
2017-08-24T00:33:06.721Z,74.60
2017-08-24T00:35:34.370Z,74.80
2017-08-24T00:38:02.119Z,75.00
2017-08-24T00:40:29.862Z,75.50
2017-08-24T00:42:57.510Z,75.80
2017-08-24T00:45:25.195Z,76.50
2017-08-24T00:47:53.087Z,76.80
2017-08-24T00:50:20.748Z,76.90
2017-08-24T00:52:48.498Z,77.10
2017-08-24T00:55:16.225Z,77.10
2017-08-24T00:57:43.866Z,77.50
2017-08-24T01:00:11.633Z,77.70
2017-08-24T01:02:39.349Z,77.80
2017-08-24T01:05:07.132Z,78.30
2017-08-24T01:07:34.774Z,78.70
2017-08-24T01:10:02.522Z,78.80
2017-08-24T01:12:30.269Z,79.00
2017-08-24T01:14:57.912Z,79.20
2017-08-24T01:17:25.661Z,79.40
2017-08-24T01:19:53.408Z,79.40
2017-08-24T01:22:21.158Z,79.60
2017-08-24T01:24:48.933Z,79.30
2017-08-24T01:27:16.751Z,79.20
2017-08-24T01:29:44.389Z,79.60
2017-08-24T01:32:12.091Z,79.80
2017-08-24T01:34:39.718Z,79.50
2017-08-24T01:37:07.436Z,79.20
2017-08-24T01:39:35.286Z,78.90
2017-08-24T01:42:03.033Z,79.20
2017-08-24T01:44:30.689Z,79.70
2017-08-24T01:46:58.526Z,79.50
2017-08-24T01:49:26.277Z,79.90
2017-08-24T01:51:53.920Z,80.30
2017-08-24T01:54:21.768Z,80.00
2017-08-24T01:56:49.515Z,79.80
2017-08-24T01:59:17.164Z,79.90
2017-08-24T02:01:44.870Z,79.80
2017-08-24T02:04:12.553Z,79.60
2017-08-24T02:06:40.303Z,79.70
2017-08-24T02:09:08.151Z,79.50
2017-08-24T02:11:39.015Z,79.60
2017-08-24T02:14:06.718Z,80.00
2017-08-24T02:16:34.465Z,80.40
2017-08-24T02:19:02.109Z,80.20
2017-08-24T02:21:29.856Z,80.10
2017-08-24T02:23:57.605Z,80.20
2017-08-24T02:26:25.249Z,80.00
2017-08-24T02:28:52.995Z,80.70
2017-08-24T02:31:20.746Z,80.80
2017-08-24T02:33:48.389Z,81.50
2017-08-24T02:36:16.135Z,81.10
2017-08-24T02:38:43.818Z,81.30
2017-08-24T02:41:11.937Z,81.30
2017-08-24T02:43:39.685Z,81.90
2017-08-24T02:46:07.374Z,81.70
2017-08-24T02:48:35.078Z,81.40
2017-08-24T02:51:02.826Z,81.70
2017-08-24T02:53:30.527Z,81.60
2017-08-24T02:55:58.162Z,82.00
2017-08-24T02:58:25.863Z,82.00
2017-08-24T03:00:53.609Z,82.40
2017-08-24T03:03:21.356Z,82.30
2017-08-24T03:05:49.102Z,82.50
2017-08-24T03:08:16.851Z,82.60
2017-08-24T03:10:44.600Z,82.60
2017-08-24T03:13:12.242Z,82.50
2017-08-24T03:15:39.947Z,82.10
2017-08-24T03:18:07.638Z,82.00
2017-08-24T03:20:35.282Z,82.10
2017-08-24T03:23:02.978Z,82.00
2017-08-24T03:25:30.675Z,82.00
2017-08-24T03:27:58.422Z,82.20
2017-08-24T03:30:26.170Z,82.60
2017-08-24T03:32:53.917Z,82.90
2017-08-24T03:35:21.561Z,82.70
2017-08-24T03:37:49.309Z,83.10
2017-08-24T03:40:17.362Z,82.90
2017-08-24T03:42:45.112Z,82.90
2017-08-24T03:45:12.856Z,82.70
2017-08-24T03:47:40.603Z,82.70
2017-08-24T03:50:08.250Z,82.70
2017-08-24T03:52:36.026Z,82.80
2017-08-24T03:55:03.673Z,82.40
2017-08-24T03:57:31.390Z,82.10
2017-08-24T03:59:59.078Z,82.10
2017-08-24T04:02:26.722Z,82.40
2017-08-24T04:04:54.630Z,82.90
2017-08-24T04:07:22.485Z,83.30
2017-08-24T04:09:50.142Z,83.20
2017-08-24T04:12:17.854Z,83.10
2017-08-24T04:14:45.553Z,83.00
2017-08-24T04:17:13.194Z,83.00
2017-08-24T04:19:40.910Z,82.90
2017-08-24T04:22:08.660Z,82.90
2017-08-24T04:24:36.303Z,82.70
2017-08-24T04:27:03.950Z,83.00
2017-08-24T04:29:31.753Z,82.90
2017-08-24T04:31:59.443Z,83.20
2017-08-24T04:34:27.191Z,83.00
2017-08-24T04:36:54.902Z,83.00
2017-08-24T04:39:22.532Z,82.90
2017-08-24T04:41:50.228Z,82.90
2017-08-24T04:44:17.974Z,82.80
2017-08-24T04:46:45.721Z,83.10
2017-08-24T04:49:13.467Z,83.20
2017-08-24T04:51:41.218Z,83.20
2017-08-24T04:54:08.848Z,82.80
2017-08-24T04:56:36.507Z,82.70
2017-08-24T04:59:04.255Z,82.70
2017-08-24T05:01:31.905Z,82.50
2017-08-24T05:03:59.546Z,82.10
2017-08-24T05:06:27.394Z,81.90
2017-08-24T05:08:55.037Z,81.60
2017-08-24T05:11:22.683Z,81.10
2017-08-24T05:13:50.431Z,80.90
2017-08-24T05:16:18.075Z,80.60
2017-08-24T05:18:45.725Z,80.10
2017-08-24T05:21:13.466Z,80.00
2017-08-24T05:23:41.116Z,79.60
2017-08-24T05:26:09.374Z,79.30
2017-08-24T05:28:37.063Z,79.80
2017-08-24T05:31:04.766Z,78.80
2017-08-24T05:33:32.512Z,78.60
2017-08-24T05:36:00.362Z,78.50
2017-08-24T05:38:27.991Z,78.90
2017-08-24T05:40:55.622Z,79.60
2017-08-24T05:43:23.399Z,79.50
2017-08-24T05:45:51.153Z,79.10
2017-08-24T05:48:18.894Z,79.30
2017-08-24T05:50:46.745Z,78.60
2017-08-24T05:53:14.401Z,79.00
2017-08-24T05:55:42.134Z,77.60
2017-08-24T05:58:09.811Z,77.40
2017-08-24T06:00:37.529Z,77.00
2017-08-24T06:03:05.277Z,76.40
2017-08-24T06:05:33.026Z,76.30
2017-08-24T06:08:00.668Z,75.90
2017-08-24T06:10:28.312Z,75.40
2017-08-24T06:12:55.995Z,75.10
2017-08-24T06:15:23.631Z,74.70
2017-08-24T06:17:51.254Z,75.60
2017-08-24T06:20:18.945Z,75.10
2017-08-24T06:22:46.639Z,75.00
2017-08-24T06:25:14.279Z,74.20
2017-08-24T06:27:42.031Z,73.80
2017-08-24T06:30:09.658Z,73.10
2017-08-24T06:32:37.528Z,73.20
2017-08-24T06:35:05.225Z,73.10
2017-08-24T06:37:32.920Z,73.30
2017-08-24T06:40:00.668Z,70.90
2017-08-24T06:42:28.415Z,70.70
2017-08-24T06:44:56.059Z,71.00
2017-08-24T06:47:23.694Z,71.20
2017-08-24T06:49:51.451Z,71.10
2017-08-24T06:52:19.096Z,70.30
2017-08-24T06:54:46.845Z,70.80
2017-08-24T06:57:14.590Z,70.30
2017-08-24T06:59:42.234Z,69.80
2017-08-24T07:02:09.879Z,69.20
2017-08-24T07:04:37.571Z,70.10
2017-08-24T07:07:05.202Z,68.80
2017-08-24T07:09:32.829Z,68.60
2017-08-24T07:12:00.594Z,67.50
2017-08-24T07:14:28.311Z,66.70
2017-08-24T07:16:55.942Z,67.80
2017-08-24T07:19:23.805Z,66.90
2017-08-24T07:21:51.553Z,66.10
2017-08-24T07:24:19.299Z,65.20
2017-08-24T07:26:47.047Z,65.50
2017-08-24T07:29:14.677Z,64.60
2017-08-24T07:31:42.337Z,65.00
2017-08-24T07:34:10.013Z,64.60
2017-08-24T07:36:37.637Z,64.80
2017-08-24T07:39:05.310Z,65.40
2017-08-24T07:41:33.123Z,65.10
2017-08-24T07:44:00.767Z,65.30
2017-08-24T07:46:28.412Z,66.00
2017-08-24T07:48:56.094Z,66.70
2017-08-24T07:51:23.805Z,66.90
2017-08-24T07:53:51.435Z,66.40
2017-08-24T07:56:19.299Z,67.10
2017-08-24T07:58:46.944Z,67.20
2017-08-24T08:01:14.666Z,67.90
2017-08-24T08:03:42.542Z,67.80
2017-08-24T08:06:10.267Z,68.10
2017-08-24T08:08:37.935Z,68.40
2017-08-24T08:11:05.714Z,68.70
2017-08-24T08:13:33.429Z,69.10
2017-08-24T08:16:01.176Z,68.20
2017-08-24T08:18:28.924Z,67.50
2017-08-24T08:20:56.555Z,67.80
2017-08-24T08:23:24.315Z,68.10
2017-08-24T08:25:52.035Z,67.80
2017-08-24T08:28:19.683Z,66.50
2017-08-24T08:30:47.453Z,64.70
2017-08-24T08:33:15.307Z,64.50
2017-08-24T08:35:42.951Z,64.20
2017-08-24T08:38:10.599Z,65.70
2017-08-24T08:40:38.345Z,63.60
2017-08-24T08:43:05.987Z,63.70
2017-08-24T08:45:33.633Z,63.30
2017-08-24T08:48:01.331Z,62.90
2017-08-24T08:50:28.966Z,62.90
2017-08-24T08:52:56.598Z,62.70
2017-08-24T08:55:24.313Z,62.30
2017-08-24T08:57:51.946Z,61.20
2017-08-24T09:00:19.708Z,60.90
2017-08-24T09:02:47.482Z,60.90
2017-08-24T09:05:15.111Z,62.10
2017-08-24T09:07:42.746Z,61.80
2017-08-24T09:10:10.427Z,61.20
2017-08-24T09:12:38.138Z,61.20
2017-08-24T09:15:05.782Z,61.10
2017-08-24T09:17:33.631Z,60.50
2017-08-24T09:20:01.276Z,61.30
2017-08-24T09:22:28.920Z,61.20
2017-08-24T09:24:56.623Z,61.00
2017-08-24T09:27:24.313Z,60.30
2017-08-24T09:29:51.937Z,60.40
2017-08-24T09:32:19.808Z,61.20
2017-08-24T09:34:47.495Z,60.30
2017-08-24T09:37:15.200Z,60.40
2017-08-24T09:39:42.981Z,61.60
2017-08-24T09:42:10.693Z,61.60
2017-08-24T09:44:38.341Z,61.40
2017-08-24T09:47:06.093Z,61.10
2017-08-24T09:49:33.836Z,62.00
2017-08-24T09:52:01.583Z,61.80
2017-08-24T09:54:29.432Z,60.90
2017-08-24T09:56:57.200Z,60.30
2017-08-24T09:59:24.927Z,61.80
2017-08-24T10:01:53.596Z,60.00
2017-08-24T10:04:21.240Z,60.60
2017-08-24T10:06:48.885Z,60.40
2017-08-24T10:09:16.735Z,61.30
2017-08-24T10:11:44.417Z,62.10
2017-08-24T10:14:12.094Z,61.80
2017-08-24T10:16:39.839Z,61.80
2017-08-24T10:19:07.623Z,62.80
2017-08-24T10:21:35.269Z,62.70
2017-08-24T10:24:02.967Z,61.70
2017-08-24T10:26:30.661Z,61.00
2017-08-24T10:28:58.482Z,61.60
2017-08-24T10:31:26.285Z,61.20
2017-08-24T10:33:53.930Z,60.90
2017-08-24T10:36:21.555Z,61.40
2017-08-24T10:38:49.293Z,59.70
2017-08-24T10:41:16.939Z,58.90
2017-08-24T10:43:44.582Z,60.60
2017-08-24T10:46:12.257Z,60.60
2017-08-24T10:48:39.890Z,60.60
2017-08-24T10:51:07.527Z,61.50
2017-08-24T10:53:35.226Z,59.90
2017-08-24T10:56:02.858Z,60.20
2017-08-24T10:58:30.494Z,60.10
2017-08-24T11:00:58.307Z,60.40
2017-08-24T11:03:26.051Z,59.90
2017-08-24T11:05:53.673Z,60.70
2017-08-24T11:08:21.454Z,61.90
2017-08-24T11:10:49.194Z,60.30
2017-08-24T11:13:16.835Z,59.20
2017-08-24T11:15:44.514Z,60.20
2017-08-24T11:18:12.229Z,60.40
2017-08-24T11:20:39.870Z,61.00
2017-08-24T11:23:07.725Z,60.30
2017-08-24T11:25:35.471Z,60.50
2017-08-24T11:28:03.116Z,59.40
2017-08-24T11:30:30.863Z,60.00
2017-08-24T11:32:58.507Z,61.90
2017-08-24T11:35:26.151Z,60.60
2017-08-24T11:37:54.005Z,61.10
2017-08-24T11:40:21.645Z,61.40
2017-08-24T11:42:49.291Z,60.70
2017-08-24T11:45:17.049Z,60.80
2017-08-24T11:47:44.786Z,60.60
2017-08-24T11:50:12.417Z,59.50
2017-08-24T11:52:40.178Z,60.10
2017-08-24T11:55:07.811Z,59.90
2017-08-24T11:57:35.469Z,60.00
2017-08-24T12:00:03.321Z,58.90
2017-08-24T12:02:30.965Z,60.90
2017-08-24T12:04:58.608Z,60.80
2017-08-24T12:07:26.356Z,59.80
2017-08-24T12:09:53.986Z,59.70
2017-08-24T12:12:21.755Z,58.10
2017-08-24T12:14:49.495Z,59.60
2017-08-24T12:17:17.139Z,58.30
2017-08-24T12:19:44.786Z,60.40
2017-08-24T12:22:12.465Z,59.20
2017-08-24T12:24:40.102Z,59.00
2017-08-24T12:27:07.824Z,58.10
2017-08-24T12:29:35.572Z,58.10
2017-08-24T12:32:03.216Z,57.80
2017-08-24T12:34:30.860Z,57.90
2017-08-24T12:36:58.710Z,59.50
2017-08-24T12:39:26.459Z,60.50
2017-08-24T12:41:54.102Z,59.00
2017-08-24T12:44:21.802Z,58.60
2017-08-24T12:46:49.494Z,57.30
2017-08-24T12:49:17.143Z,58.60
2017-08-24T12:51:44.886Z,56.50
2017-08-24T12:54:12.531Z,57.40
2017-08-24T12:56:40.279Z,57.80
2017-08-24T12:59:08.029Z,57.20
2017-08-24T13:01:35.776Z,56.70
2017-08-24T13:04:03.419Z,57.10
2017-08-24T13:06:31.167Z,55.00
2017-08-24T13:08:58.798Z,57.00
2017-08-24T13:11:26.457Z,56.10
2017-08-24T13:13:54.242Z,56.20
2017-08-24T13:16:21.879Z,55.90
2017-08-24T13:18:49.505Z,53.60
2017-08-24T13:21:17.627Z,55.10
2017-08-24T13:23:45.249Z,55.20
2017-08-24T13:26:12.878Z,56.30
2017-08-24T13:28:40.558Z,55.50
2017-08-24T13:31:08.190Z,54.40
2017-08-24T13:33:35.818Z,52.60
2017-08-24T13:36:03.623Z,53.80
2017-08-24T13:38:31.371Z,53.10
2017-08-24T13:40:59.015Z,54.10
2017-08-24T13:43:26.725Z,52.60
2017-08-24T13:45:54.407Z,52.10
2017-08-24T13:48:22.058Z,54.10
2017-08-24T13:50:49.799Z,53.00
2017-08-24T13:53:17.443Z,54.80
2017-08-24T13:55:45.074Z,54.80
2017-08-24T13:58:12.779Z,54.10
2017-08-24T14:00:40.481Z,54.70
2017-08-24T14:03:08.231Z,53.80
2017-08-24T14:05:35.977Z,53.30
2017-08-24T14:08:03.725Z,53.90
2017-08-24T14:10:31.472Z,53.10
2017-08-24T14:12:59.174Z,54.30
2017-08-24T14:15:26.863Z,52.90
2017-08-24T14:17:54.507Z,52.20
2017-08-24T14:20:22.358Z,51.20
2017-08-24T14:22:50.105Z,50.90
2017-08-24T14:25:17.752Z,51.70
2017-08-24T14:27:45.500Z,52.20
2017-08-24T14:30:13.244Z,52.10
2017-08-24T14:32:40.880Z,51.60
2017-08-24T14:35:08.669Z,53.20
2017-08-24T14:37:36.385Z,53.10
2017-08-24T14:40:04.031Z,54.90
2017-08-24T14:42:31.727Z,55.40
2017-08-24T14:44:59.370Z,55.80
2017-08-24T14:47:27.067Z,56.90
2017-08-24T14:49:54.815Z,55.40
2017-08-24T14:52:22.459Z,55.50
2017-08-24T14:54:50.207Z,55.00
2017-08-24T14:57:18.056Z,56.20
2017-08-24T14:59:45.701Z,54.80
2017-08-24T15:02:15.620Z,56.10
2017-08-24T15:04:43.372Z,55.90
2017-08-24T15:07:11.003Z,57.20
2017-08-24T15:09:38.740Z,57.10
2017-08-24T15:12:06.590Z,57.70
2017-08-24T15:14:34.337Z,57.20
2017-08-24T15:17:01.980Z,57.10
2017-08-24T15:19:29.667Z,56.40
2017-08-24T15:21:57.374Z,56.30
2017-08-24T15:24:25.022Z,56.30
2017-08-24T15:26:52.867Z,56.60
2017-08-24T15:29:20.512Z,56.50
2017-08-24T15:31:48.157Z,57.00
2017-08-24T15:34:16.007Z,57.10
2017-08-24T15:36:43.638Z,58.40
2017-08-24T15:39:11.295Z,58.40
2017-08-24T15:41:39.438Z,58.40
2017-08-24T15:44:07.103Z,57.90
2017-08-24T15:46:34.848Z,58.30
2017-08-24T15:49:02.596Z,57.10
2017-08-24T15:51:30.342Z,57.20
2017-08-24T15:53:57.986Z,55.60
2017-08-24T15:56:25.674Z,57.00
2017-08-24T15:58:53.310Z,57.10
2017-08-24T16:01:21.032Z,56.20
2017-08-24T16:03:48.706Z,57.10
2017-08-24T16:06:16.416Z,57.60
2017-08-24T16:08:44.059Z,56.90
2017-08-24T16:11:11.735Z,58.80
2017-08-24T16:13:39.454Z,58.10
2017-08-24T16:16:07.102Z,57.70
2017-08-24T16:18:34.858Z,57.70
2017-08-24T16:21:02.595Z,58.20
2017-08-24T16:23:30.221Z,60.20
2017-08-24T16:25:58.087Z,60.00
2017-08-24T16:28:25.718Z,59.90
2017-08-24T16:30:53.350Z,61.00
2017-08-24T16:33:21.051Z,62.20
2017-08-24T16:35:48.769Z,62.40
2017-08-24T16:38:16.422Z,62.60
2017-08-24T16:40:44.263Z,63.30
2017-08-24T16:43:12.010Z,64.10
2017-08-24T16:45:39.759Z,65.60
2017-08-24T16:48:07.443Z,65.70
2017-08-24T16:50:35.086Z,66.20
2017-08-24T16:53:02.725Z,65.90
2017-08-24T16:55:30.531Z,66.30
2017-08-24T16:57:58.188Z,66.80
2017-08-24T17:00:25.818Z,66.00
2017-08-24T17:02:53.581Z,66.30
2017-08-24T17:05:21.210Z,66.00
2017-08-24T17:07:48.835Z,65.70
2017-08-24T17:10:16.518Z,65.40
2017-08-24T17:12:44.262Z,65.40
2017-08-24T17:15:11.906Z,66.30
2017-08-24T17:17:39.655Z,66.10
2017-08-24T17:20:07.405Z,66.40
2017-08-24T17:22:35.152Z,66.50
2017-08-24T17:25:03.000Z,66.50
2017-08-24T17:27:30.645Z,66.50
2017-08-24T17:29:58.290Z,66.40
2017-08-24T17:32:26.139Z,67.00
2017-08-24T17:34:53.773Z,67.40
2017-08-24T17:37:21.413Z,68.40
2017-08-24T17:39:49.176Z,68.10
2017-08-24T17:42:16.814Z,68.00
2017-08-24T17:44:44.569Z,68.40
2017-08-24T17:47:12.256Z,68.80
2017-08-24T17:49:39.902Z,68.80
2017-08-24T17:52:07.608Z,68.80
2017-08-24T17:54:35.663Z,68.80
2017-08-24T17:57:03.416Z,69.30
2017-08-24T17:59:31.156Z,69.80
2017-08-24T18:01:58.904Z,69.90
2017-08-24T18:04:26.652Z,70.10
2017-08-24T18:06:54.602Z,70.30
2017-08-24T18:09:22.350Z,70.40
2017-08-24T18:11:50.097Z,70.70
2017-08-24T18:14:17.743Z,70.70
2017-08-24T18:16:45.490Z,71.00
2017-08-24T18:19:13.240Z,71.40
2017-08-24T18:21:40.880Z,71.60
2017-08-24T18:24:08.734Z,71.90
2017-08-24T18:26:36.481Z,72.40
2017-08-24T18:29:04.229Z,72.00
2017-08-24T18:31:31.954Z,72.20
2017-08-24T18:33:59.622Z,72.10
2017-08-24T18:36:27.283Z,72.60
2017-08-24T18:38:55.157Z,72.50
2017-08-24T18:41:22.969Z,72.60
2017-08-24T18:43:50.634Z,72.70
2017-08-24T18:46:18.458Z,72.60
2017-08-24T18:48:46.310Z,72.70
2017-08-24T18:51:13.958Z,73.00
2017-08-24T18:53:41.641Z,73.00
2017-08-24T18:56:09.300Z,73.10
2017-08-24T18:58:36.966Z,72.80
2017-08-24T19:01:04.739Z,72.60
2017-08-24T19:03:32.486Z,72.80
2017-08-24T19:06:00.233Z,71.70
2017-08-24T19:08:28.018Z,71.10
2017-08-24T19:10:55.678Z,69.80
2017-08-24T19:13:23.371Z,69.30
2017-08-24T19:15:51.150Z,68.70
2017-08-24T19:18:18.866Z,67.30
2017-08-24T19:20:46.613Z,67.00
2017-08-24T19:23:14.326Z,67.30
2017-08-24T19:25:42.005Z,67.40
2017-08-24T19:28:09.644Z,69.60
2017-08-24T19:30:37.503Z,70.30
2017-08-24T19:33:05.147Z,71.40
2017-08-24T19:35:32.793Z,72.20
2017-08-24T19:38:00.540Z,73.00
2017-08-24T19:40:28.286Z,73.50
2017-08-24T19:42:55.930Z,73.50
2017-08-24T19:45:23.679Z,73.40
2017-08-24T19:47:51.322Z,73.60
2017-08-24T19:50:19.071Z,73.40
2017-08-24T19:52:46.766Z,74.20
2017-08-24T19:55:14.461Z,74.50
2017-08-24T19:57:42.106Z,74.60
2017-08-24T20:00:09.809Z,75.00
2017-08-24T20:02:37.441Z,75.30
2017-08-24T20:05:05.146Z,75.30
2017-08-24T20:07:32.839Z,75.40
2017-08-24T20:10:00.540Z,75.80
2017-08-24T20:12:28.182Z,76.00
2017-08-24T20:14:56.059Z,76.40
2017-08-24T20:17:23.779Z,76.80
2017-08-24T20:19:51.428Z,76.60
2017-08-24T20:22:19.226Z,76.50
2017-08-24T20:24:46.871Z,76.40
2017-08-24T20:27:14.563Z,75.90
2017-08-24T20:29:43.130Z,75.50
2017-08-24T20:32:10.790Z,75.40
2017-08-24T20:34:38.434Z,75.30
2017-08-24T20:37:06.113Z,75.40
2017-08-24T20:39:33.778Z,75.50
2017-08-24T20:42:01.458Z,75.70
2017-08-24T20:44:29.205Z,76.20
2017-08-24T20:46:56.838Z,76.10
2017-08-24T20:49:24.496Z,76.20
2017-08-24T20:51:52.194Z,76.40
2017-08-24T20:54:19.834Z,76.60
2017-08-24T20:56:47.458Z,77.00
2017-08-24T20:59:15.134Z,77.50
2017-08-24T21:01:42.762Z,77.10
2017-08-24T21:04:10.466Z,76.70
2017-08-24T21:06:38.215Z,77.60
2017-08-24T21:09:05.859Z,77.70
2017-08-24T21:11:33.505Z,77.70
2017-08-24T21:14:01.252Z,78.30
2017-08-24T21:16:28.896Z,79.30
2017-08-24T21:18:56.530Z,79.90
2017-08-24T21:21:24.234Z,80.00
2017-08-24T21:23:51.934Z,79.90
2017-08-24T21:26:19.579Z,79.80
2017-08-24T21:28:47.428Z,80.40
2017-08-24T21:31:15.071Z,80.10
2017-08-24T21:33:42.710Z,80.00
2017-08-24T21:36:10.401Z,80.60
2017-08-24T21:38:38.524Z,80.50
2017-08-24T21:41:06.167Z,80.50
2017-08-24T21:43:33.912Z,79.30
2017-08-24T21:46:01.559Z,79.90
2017-08-24T21:48:29.187Z,79.80
2017-08-24T21:50:56.951Z,80.60
2017-08-24T21:53:24.598Z,80.60
2017-08-24T21:55:52.239Z,80.00
2017-08-24T21:58:19.947Z,80.60
2017-08-24T22:00:47.582Z,80.70
2017-08-24T22:03:15.379Z,80.80
2017-08-24T22:05:43.057Z,81.00
2017-08-24T22:08:10.694Z,80.90
2017-08-24T22:10:38.418Z,81.40
2017-08-24T22:13:06.165Z,80.70
2017-08-24T22:15:33.811Z,80.80
2017-08-24T22:18:01.430Z,80.70
2017-08-24T22:20:29.203Z,81.30
2017-08-24T22:22:56.846Z,80.70
2017-08-24T22:25:24.474Z,80.40
2017-08-24T22:27:52.238Z,80.70
2017-08-24T22:30:19.883Z,80.60
2017-08-24T22:32:47.532Z,80.60
2017-08-24T22:35:15.684Z,80.80
2017-08-24T22:37:43.323Z,81.10
2017-08-24T22:40:11.077Z,81.10
2017-08-24T22:42:38.810Z,81.50
2017-08-24T22:45:06.482Z,81.50
2017-08-24T22:47:34.119Z,81.70
2017-08-24T22:50:01.864Z,82.00
2017-08-24T22:52:29.610Z,82.10
2017-08-24T22:55:02.990Z,81.90
2017-08-24T22:57:36.574Z,81.50
2017-08-24T23:03:14.931Z,81.90
2017-08-24T23:05:42.714Z,81.70
2017-08-24T23:08:10.359Z,82.10
2017-08-24T23:10:38.109Z,82.40
2017-08-24T23:13:05.890Z,82.70
2017-08-24T23:15:33.530Z,83.00
2017-08-24T23:18:01.248Z,82.90
2017-08-24T23:20:29.098Z,83.20
2017-08-24T23:22:56.845Z,83.40
2017-08-24T23:25:24.523Z,83.40
2017-08-24T23:27:52.340Z,83.90
2017-08-24T23:30:20.023Z,83.80
2017-08-24T23:32:47.733Z,83.40
2017-08-24T23:35:15.430Z,83.10
2017-08-24T23:37:43.123Z,82.70
2017-08-24T23:40:10.766Z,82.40
2017-08-24T23:42:38.470Z,83.10
2017-08-24T23:45:06.162Z,83.40
2017-08-24T23:47:33.914Z,83.50
2017-08-24T23:50:01.762Z,83.30
2017-08-24T23:52:29.506Z,83.10
2017-08-24T23:54:57.151Z,82.90
2017-08-24T23:57:25.000Z,82.70
2017-08-24T23:59:52.747Z,82.60
